Flight Track Log - Related Links

Times and Time Zones

All times are in EDT time to prevent confusion due to time zone crossing. See the EGF3418 flight status page for this flight to view local times or setup timezone preferences in your user account.

Time Position Orientation Groundspeed Altitude Reporting Facility
EDT Latitude Longitude Course Direction KTS MPH feet Rate Location/Type
Thu 05:49:00 PM 35.1571 -101.3687 104° East  Level FlightAware Approximate
Thu 05:49:23 PM 35.2211 -101.5469 103° East 253 291 8,700  Level Albuquerque Center
Thu 05:50:00 PM 35.1305 -101.2551 107° East  Level FlightAware Approximate
Thu 05:50:25 PM 35.1828 -101.4664 120° Southeast 274 315 10,800  Level Albuquerque Center
Thu 05:51:00 PM 35.1022 -101.1420 107° East  Level FlightAware Approximate
Thu 05:51:26 PM 35.1656 -101.3747 103° East 278 320 13,400  Level Albuquerque Center
Thu 05:52:00 PM 35.0847 -101.0259 100° East  Level FlightAware Approximate
Thu 05:52:28 PM 35.1458 -101.2789 104° East 287 330 14,500  Level Albuquerque Center
Thu 05:53:00 PM 35.0429 -100.9136 106° East  Level FlightAware Approximate
Thu 05:53:30 PM 35.1164 -101.1436 105° East 335 386 15,800  Level Albuquerque Center
Thu 05:54:32 PM 35.0728 -101.0292 115° Southeast 371 427 17,200 1,597 Climbing Albuquerque Center
Thu 05:55:34 PM 35.0197 -100.9178 120° Southeast 380 437 19,100 1,742 Climbing Albuquerque Center
Thu 05:56:36 PM 34.9681 -100.8053 119° Southeast 380 437 20,800 1,645 Climbing Albuquerque Center
Thu 05:57:38 PM 34.9161 -100.6894 119° Southeast 387 445 22,500 1,610 Climbing Albuquerque Center
Thu 05:58:39 PM 34.8617 -100.5736 120° Southeast 392 451 24,100 1,707 Climbing Albuquerque Center
Thu 05:59:41 PM 34.7975 -100.4350 119° Southeast 393 452 26,000 1,403 Climbing Albuquerque Center
Thu 06:00:43 PM 34.7456 -100.3233 119° Southeast 395 455 27,000 968 Climbing Albuquerque Center
Thu 06:01:45 PM 34.6889 -100.2011 119° Southeast 408 470 28,000 968 Climbing Albuquerque Center
Thu 06:02:47 PM 34.6297 -100.0756 120° Southeast 421 484 29,000 484 Climbing Albuquerque Center
Thu 06:03:49 PM 34.5692 -99.9475 120° Southeast 432 497 29,000  Level Albuquerque Center
Thu 06:04:44 PM 34.4969 -99.7997 121° Southeast 454 522 29,000  Level Fort Worth Center
Thu 06:05:44 PM 34.4286 -99.6542 120° Southeast 478 550 29,000  Level Fort Worth Center
Thu 06:06:44 PM 34.3603 -99.5067 119° Southeast 492 566 29,000  Level Fort Worth Center
Thu 06:07:44 PM 34.2897 -99.3592 120° Southeast 503 579 29,000  Level Fort Worth Center
Thu 06:08:44 PM 34.2208 -99.2144 120° Southeast 503 579 29,000 -250 Level Fort Worth Center
Thu 06:09:44 PM 34.1578 -99.0900 121° Southeast 497 572 28,500 -950 Descending Fort Worth Center
Thu 06:10:44 PM 34.0828 -98.9331 120° Southeast 479 551 27,100 -1,400 Descending Fort Worth Center
Thu 06:11:44 PM 34.0156 -98.7942 120° Southeast 489 563 25,700 -1,200 Descending Fort Worth Center
Thu 06:12:44 PM 33.9519 -98.6781 123° Southeast 470 541 24,700 -850 Descending Fort Worth Center
Thu 06:13:44 PM 33.8803 -98.5444 123° Southeast 465 535 24,000 -350 Descending Fort Worth Center
Thu 06:14:44 PM 33.8022 -98.4008 123° Southeast 465 535 24,000  Level Fort Worth Center
Thu 06:15:44 PM 33.7322 -98.2703 123° Southeast 465 535 24,000 -100 Level Fort Worth Center
Thu 06:16:44 PM 33.6600 -98.1422 124° Southeast 465 535 23,800 -1,050 Descending Fort Worth Center
Thu 06:17:44 PM 33.5856 -98.0069 123° Southeast 475 547 21,900 -2,400 Descending Fort Worth Center
Thu 06:18:44 PM 33.5131 -97.8769 124° Southeast 480 552 19,000 -3,100 Descending Fort Worth Center
Thu 06:19:44 PM 33.4508 -97.7644 124° Southeast 457 526 15,700 -3,300 Descending Fort Worth Center
Thu 06:20:44 PM 33.3822 -97.6372 123° Southeast 434 499 12,400 -2,350 Descending Fort Worth Center
Thu 06:21:44 PM 33.3050 -97.5478 136° Southeast 400 460 11,000 -700 Descending Fort Worth Center
Thu 06:22:44 PM 33.2383 -97.4706 136° Southeast 377 434 11,000  Level Fort Worth Center
Thu 06:23:44 PM 33.1569 -97.3761 136° Southeast 372 428 11,000  Level Fort Worth Center
Thu 06:24:44 PM 33.0881 -97.2969 136° Southeast 372 428 11,000  Level Fort Worth Center
Thu 06:25:44 PM 33.0169 -97.2103 134° Southeast 350 403 11,000  Level Fort Worth Center
Thu 06:26:44 PM 32.9542 -97.1633 148° Southeast 292 336 11,000 -650 Level Fort Worth Center
Thu 06:27:44 PM 32.8833 -97.1686 184° South 248 285 9,700 -1,800 Descending Fort Worth Center
Thu 06:28:44 PM 32.8186 -97.1686 180° South 235 270 7,400 -2,300 Descending Fort Worth Center

Login

Don't have an account? Register now (free) for customized features, flight alerts, and more!